Time;durP1;ratioP1;P1;durP2;ratioP2;P2;SDS_P1;SDS_P2;PMS_P1;PMS_P2;Temp;Humidity;BMP_temperature;BMP_pressure;BME280_temperature;BME280_humidity;BME280_pressure;Samples;Min_cycle;Max_cycle;Signal;HPM_P1;HPM_P2
2022/03/22 00:01:51;;;;;;;;;;;;;;;3.69;70.44;102119.94;5057860;28;1225;-90
2022/03/22 00:04:16;;;;;;;;;;;;;;;3.36;70.06;102123.19;5058895;28;1203;-91
2022/03/22 00:06:41;;;;;;;;;;;;;;;2.94;72.13;102118.59;5047078;28;1483;-90
2022/03/22 00:09:07;;;;;;;;;;;;;;;2.81;72.60;102128.38;5055763;28;1462;-90
2022/03/22 00:11:33;;;;;;;;;;;;;;;2.87;73.48;102127.66;5058890;28;1517;-91
2022/03/22 00:13:58;;;;;;;;;;;;;;;2.86;72.81;102129.50;5058716;28;1284;-91
2022/03/22 00:16:23;;;;;;;;;;;;;;;2.79;72.94;102127.75;5040963;28;1889;-91
2022/03/22 00:18:48;;;;;;;;;;;;;;;2.98;73.44;102121.72;5038769;28;1291;-90
2022/03/22 00:21:14;;;;;;;;;;;;;;;3.16;72.08;102121.31;5038926;28;1311;-91
2022/03/22 00:23:39;;;;;;;;;;;;;;;3.04;72.28;102121.81;5038697;28;1353;-90
2022/03/22 00:26:04;;;;;;;;;;;;;;;3.14;72.83;102131.50;5038491;28;1360;-90
2022/03/22 00:28:30;;;;;;;;;;;;;;;3.11;71.84;102126.47;5038839;28;1372;-90
2022/03/22 00:30:56;;;;;;;;;;;;;;;3.08;72.56;102135.78;5038734;28;1388;-91
2022/03/22 00:33:21;;;;;;;;;;;;;;;2.96;72.25;102134.63;5038403;28;1287;-90
2022/03/22 00:35:46;;;;;;;;;;;;;;;2.97;72.23;102134.44;5045565;28;1955;-91
2022/03/22 00:38:12;;;;;;;;;;;;;;;2.96;72.46;102132.75;5058609;28;1246;-90
2022/03/22 00:40:38;;;;;;;;;;;;;;;3.11;71.70;102130.00;5041371;28;1415;-91
2022/03/22 00:43:04;;;;;;;;;;;;;;;3.16;71.75;102130.25;5038027;28;1203;-90
2022/03/22 00:45:31;;;;;;;;;;;;;;;3.05;71.38;102130.78;5038277;28;1398;-90
2022/03/22 00:47:58;;;;;;;;;;;;;;;3.04;72.41;102129.94;5048466;28;1340;-89
2022/03/22 00:50:27;;;;;;;;;;;;;;;2.91;72.09;102135.19;5057743;28;1243;-91
2022/03/22 00:52:52;;;;;;;;;;;;;;;2.78;72.51;102131.50;5057679;28;1388;-91
2022/03/22 00:55:18;;;;;;;;;;;;;;;2.80;72.75;102134.84;5051744;28;1557;-90
2022/03/22 00:57:44;;;;;;;;;;;;;;;2.66;71.82;102131.97;5049917;28;1967;-91
2022/03/22 01:00:11;;;;;;;;;;;;;;;2.51;72.08;102133.84;5057959;28;1391;-90
2022/03/22 01:02:37;;;;;;;;;;;;;;;2.53;72.42;102130.97;5075539;28;1399;-90
2022/03/22 01:05:08;;;;;;;;;;;;;;;2.39;73.29;102140.75;5055086;28;1403;-91
2022/03/22 01:07:33;;;;;;;;;;;;;;;2.60;72.98;102130.03;5037770;28;1285;-91
2022/03/22 01:09:59;;;;;;;;;;;;;;;2.60;72.00;102138.13;5038158;28;1347;-91
2022/03/22 01:12:24;;;;;;;;;;;;;;;2.55;72.59;102131.63;5045253;28;1372;-91
2022/03/22 01:14:49;;;;;;;;;;;;;;;2.20;73.75;102141.31;5075606;28;842;-91
2022/03/22 01:17:15;;;;;;;;;;;;;;;2.17;74.24;102136.28;5057505;28;1906;-91
2022/03/22 01:19:40;;;;;;;;;;;;;;;2.28;74.65;102139.38;5057460;28;1479;-91
2022/03/22 01:22:08;;;;;;;;;;;;;;;2.19;73.88;102131.53;5052567;28;1617;-91
2022/03/22 01:24:33;;;;;;;;;;;;;;;2.18;74.05;102135.25;5037404;28;1220;-91
2022/03/22 01:26:58;;;;;;;;;;;;;;;2.28;73.80;102133.13;5040171;28;1445;-91
2022/03/22 01:29:23;;;;;;;;;;;;;;;2.18;73.46;102138.78;5057609;28;1216;-90
2022/03/22 01:31:49;;;;;;;;;;;;;;;2.26;73.18;102143.28;5057569;28;1024;-91
2022/03/22 01:34:14;;;;;;;;;;;;;;;2.34;73.30;102134.22;5057205;28;1341;-91
2022/03/22 01:36:40;;;;;;;;;;;;;;;2.37;73.41;102131.16;5056964;28;1953;-91
2022/03/22 01:39:05;;;;;;;;;;;;;;;2.12;73.59;102127.91;5057278;28;1250;-91
2022/03/22 01:41:30;;;;;;;;;;;;;;;2.03;74.76;102129.84;5057330;28;1275;-91
2022/03/22 01:43:55;;;;;;;;;;;;;;;2.16;74.18;102127.34;5057203;28;822;-91
2022/03/22 01:46:23;;;;;;;;;;;;;;;2.27;73.68;102136.84;5054484;28;1493;-91
2022/03/22 01:48:48;;;;;;;;;;;;;;;2.18;72.83;102129.84;5055086;28;845;-91
2022/03/22 01:51:13;;;;;;;;;;;;;;;2.18;73.35;102130.69;5037033;28;1157;-90
2022/03/22 01:53:40;;;;;;;;;;;;;;;2.17;72.96;102126.31;5049466;28;1503;-91
2022/03/22 01:56:05;;;;;;;;;;;;;;;2.24;72.88;102121.84;5037061;28;1906;-91
2022/03/22 01:58:31;;;;;;;;;;;;;;;2.25;72.55;102123.50;5046891;28;1465;-90
2022/03/22 02:05:51;;;;;;;;;;;;;;;2.21;73.07;102121.38;5056158;28;1501;-90
2022/03/22 02:06:31;;;;;;;;;;;;;;;1.73;74.60;102117.31;5074736;28;1304;-90
2022/03/22 02:08:56;;;;;;;;;;;;;;;1.74;74.22;102114.44;5036994;28;1220;-91
2022/03/22 02:11:21;;;;;;;;;;;;;;;1.81;75.01;102112.66;5036624;28;944;-90
2022/03/22 02:13:46;;;;;;;;;;;;;;;1.94;75.07;102116.63;5036439;28;1106;-91
2022/03/22 02:16:11;;;;;;;;;;;;;;;2.05;74.45;102114.28;5055141;28;1894;-90
2022/03/22 02:18:37;;;;;;;;;;;;;;;2.17;73.49;102109.25;5056574;28;1321;-91
2022/03/22 02:21:03;;;;;;;;;;;;;;;1.98;73.34;102110.63;5056359;28;1299;-91
2022/03/22 02:23:47;;;;;;;;;;;;;;;1.98;74.34;102112.50;5055949;28;1437;-91
2022/03/22 02:26:12;;;;;;;;;;;;;;;1.45;75.59;102109.78;5073485;28;1340;-91
2022/03/22 02:28:37;;;;;;;;;;;;;;;1.58;75.92;102109.19;5056386;28;1211;-91
2022/03/22 02:31:02;;;;;;;;;;;;;;;1.59;75.35;102110.03;5056485;28;1216;-91
2022/03/22 02:33:28;;;;;;;;;;;;;;;1.59;74.77;102107.31;5056241;28;1225;-91
2022/03/22 02:35:53;;;;;;;;;;;;;;;1.46;75.03;102105.22;5073994;28;1889;-90
2022/03/22 02:38:18;;;;;;;;;;;;;;;1.59;74.98;102105.47;5056114;28;920;-90
2022/03/22 02:40:45;;;;;;;;;;;;;;;1.77;74.84;102103.28;5056235;28;1278;-91
2022/03/22 02:43:10;;;;;;;;;;;;;;;1.69;73.91;102105.22;5055844;28;1532;-91
2022/03/22 02:45:36;;;;;;;;;;;;;;;1.72;74.50;102104.81;5055950;28;1324;-90
2022/03/22 02:48:01;;;;;;;;;;;;;;;1.62;74.89;102109.63;5073824;28;1175;-91
2022/03/22 02:50:26;;;;;;;;;;;;;;;1.39;74.69;102102.41;5056092;28;1323;-91
2022/03/22 02:52:51;;;;;;;;;;;;;;;1.53;75.01;102100.81;5056007;28;1191;-91
2022/03/22 02:55:16;;;;;;;;;;;;;;;1.67;75.03;102102.69;5056557;28;1691;-91
2022/03/22 02:57:43;;;;;;;;;;;;;;;1.71;74.50;102103.16;5035874;28;1973;-91
2022/03/22 03:00:09;;;;;;;;;;;;;;;1.65;74.29;102104.72;5036070;28;1366;-91
2022/03/22 03:02:44;;;;;;;;;;;;;;;1.57;74.40;102112.91;5035955;28;1180;-91
2022/03/22 03:05:10;;;;;;;;;;;;;;;1.61;74.46;102108.81;5053672;28;785;-91
2022/03/22 03:07:36;;;;;;;;;;;;;;;1.62;74.81;102109.63;5035840;28;1247;-91
2022/03/22 03:10:01;;;;;;;;;;;;;;;1.37;74.52;102098.22;5052008;28;1274;-91
2022/03/22 03:12:26;;;;;;;;;;;;;;;1.38;74.70;102102.59;5056041;28;1338;-90
2022/03/22 03:14:51;;;;;;;;;;;;;;;1.26;74.61;102107.59;5077831;28;813;-91
2022/03/22 03:17:16;;;;;;;;;;;;;;;1.37;75.00;102109.00;5059390;28;1933;-91
2022/03/22 03:19:42;;;;;;;;;;;;;;;1.38;74.66;102110.69;5077690;28;1466;-90
2022/03/22 03:22:07;;;;;;;;;;;;;;;1.44;74.46;102113.53;5059579;28;1463;-90
2022/03/22 03:24:33;;;;;;;;;;;;;;;1.47;74.51;102112.31;5040615;28;1641;-90
2022/03/22 03:26:58;;;;;;;;;;;;;;;1.48;74.29;102109.44;5043542;28;1374;-91
2022/03/22 03:29:23;;;;;;;;;;;;;;;1.24;74.74;102117.72;5041494;28;1486;-92
2022/03/22 03:31:49;;;;;;;;;;;;;;;0.90;76.11;102112.72;5041553;28;1580;-91
2022/03/22 03:34:14;;;;;;;;;;;;;;;1.06;75.85;102119.84;5059407;28;1216;-91
2022/03/22 03:36:39;;;;;;;;;;;;;;;1.13;75.27;102118.13;5059615;28;1959;-91
2022/03/22 03:39:04;;;;;;;;;;;;;;;0.90;75.16;102120.81;5059518;28;1451;-91
2022/03/22 03:47:03;;;;;;;;;;;;;;;0.91;76.17;102118.94;5077483;28;1224;-91
2022/03/22 03:49:29;;;;;;;;;;;;;;;0.92;76.23;102121.47;5059024;28;1415;-92
2022/03/22 03:51:54;;;;;;;;;;;;;;;1.08;76.52;102124.06;5059265;28;1354;-92
2022/03/22 03:54:20;;;;;;;;;;;;;;;1.01;75.54;102123.09;5058954;28;960;-91
2022/03/22 03:56:45;;;;;;;;;;;;;;;1.06;75.65;102126.09;5059007;28;1967;-90
2022/03/22 03:59:11;;;;;;;;;;;;;;;0.91;76.18;102121.66;5059337;28;1223;-91
2022/03/22 04:01:36;;;;;;;;;;;;;;;1.02;76.09;102126.66;5059031;28;1664;-90
2022/03/22 04:04:01;;;;;;;;;;;;;;;1.02;75.72;102134.72;5058800;28;883;-91
2022/03/22 04:06:27;;;;;;;;;;;;;;;0.99;75.50;102135.06;5054126;28;1581;-91
2022/03/22 04:08:52;;;;;;;;;;;;;;;0.97;75.86;102139.81;5048026;28;1375;-91
2022/03/22 04:11:17;;;;;;;;;;;;;;;0.93;76.28;102139.34;5057261;28;1329;-91
2022/03/22 04:13:43;;;;;;;;;;;;;;;0.87;76.15;102140.03;5058602;28;1044;-91
2022/03/22 04:16:08;;;;;;;;;;;;;;;0.94;76.11;102140.16;5058809;28;1959;-91
2022/03/22 04:18:34;;;;;;;;;;;;;;;0.98;76.04;102136.94;5076612;28;793;-91
2022/03/22 04:20:59;;;;;;;;;;;;;;;0.83;75.88;102138.72;5059067;28;1367;-91
2022/03/22 04:23:25;;;;;;;;;;;;;;;0.72;75.97;102139.94;5058627;28;1345;-91
2022/03/22 04:25:50;;;;;;;;;;;;;;;0.55;76.94;102138.31;5057995;28;1252;-91
2022/03/22 04:33:43;;;;;;;;;;;;;;;0.63;76.54;102140.16;5076870;28;615;-91
2022/03/22 04:36:11;;;;;;;;;;;;;;;0.71;76.56;102140.09;5058258;28;1890;-91
2022/03/22 04:38:36;;;;;;;;;;;;;;;0.59;76.21;102146.91;5050448;28;1446;-91
2022/03/22 04:41:04;;;;;;;;;;;;;;;0.43;76.93;102144.25;5048239;28;1642;-91
2022/03/22 04:43:29;;;;;;;;;;;;;;;0.37;77.07;102149.34;5058778;28;1225;-91
2022/03/22 04:45:54;;;;;;;;;;;;;;;0.32;77.01;102151.72;5058123;28;1358;-91
2022/03/22 04:48:19;;;;;;;;;;;;;;;0.26;76.93;102152.38;5098086;22;1998;-88
2022/03/22 04:50:44;;;;;;;;;;;;;;;0.42;77.04;102153.38;5058489;28;967;-88
2022/03/22 04:58:37;;;;;;;;;;;;;;;0.37;76.37;102154.72;5076805;28;1237;-89
2022/03/22 05:01:03;;;;;;;;;;;;;;;0.28;75.88;102147.69;5041534;28;1196;-89
2022/03/22 05:03:29;;;;;;;;;;;;;;;0.20;76.27;102150.41;5076010;28;825;-89
2022/03/22 05:08:54;;;;;;;;;;;;;;;0.22;76.47;102156.44;5041858;28;1473;-89
2022/03/22 05:11:19;;;;;;;;;;;;;;;0.21;76.56;102156.63;5074987;28;1333;-89
2022/03/22 05:13:44;;;;;;;;;;;;;;;0.22;76.47;102164.53;5076103;28;789;-89
2022/03/22 05:16:10;;;;;;;;;;;;;;;0.26;76.49;102170.41;5057758;28;1939;-90
2022/03/22 05:18:36;;;;;;;;;;;;;;;0.33;76.85;102166.88;5057841;28;1389;-89
2022/03/22 05:21:04;;;;;;;;;;;;;;;0.46;76.65;102171.69;5041374;28;1193;-88
2022/03/22 05:23:29;;;;;;;;;;;;;;;0.56;76.15;102166.94;5057858;28;1196;-89
2022/03/22 05:25:54;;;;;;;;;;;;;;;0.43;76.05;102171.19;5057967;28;1294;-89
2022/03/22 05:28:19;;;;;;;;;;;;;;;0.27;76.32;102178.31;5075905;28;1181;-89
2022/03/22 05:30:44;;;;;;;;;;;;;;;0.27;76.62;102183.69;5057956;28;1275;-89
2022/03/22 05:33:09;;;;;;;;;;;;;;;0.36;76.66;102182.66;5057608;28;984;-89
2022/03/22 05:35:35;;;;;;;;;;;;;;;0.34;76.40;102182.00;5040690;28;1190;-89
2022/03/22 05:38:00;;;;;;;;;;;;;;;0.15;77.33;102178.84;5057380;28;1890;-90
2022/03/22 05:40:25;;;;;;;;;;;;;;;0.27;77.21;102180.16;5041179;28;1188;-90
2022/03/22 05:42:51;;;;;;;;;;;;;;;0.34;77.79;102192.75;5057422;28;1291;-91
2022/03/22 05:45:17;;;;;;;;;;;;;;;0.25;76.68;102183.06;5057650;28;1199;-90
2022/03/22 05:47:42;;;;;;;;;;;;;;;0.15;77.10;102187.78;5057260;28;1394;-90
2022/03/22 05:50:07;;;;;;;;;;;;;;;0.26;77.09;102178.47;5057324;28;1167;-89
2022/03/22 05:55:59;;;;;;;;;;;;;;;0.31;77.09;102187.75;5055128;28;1096;-89
2022/03/22 05:58:24;;;;;;;;;;;;;;;0.33;76.75;102187.56;5037169;28;1354;-89
2022/03/22 06:00:50;;;;;;;;;;;;;;;0.36;76.53;102188.06;5068791;28;1311;-89
2022/03/22 06:03:15;;;;;;;;;;;;;;;0.50;76.43;102193.75;5049831;28;1329;-90
2022/03/22 06:05:42;;;;;;;;;;;;;;;0.62;76.18;102189.66;5057013;28;1197;-89
2022/03/22 06:08:07;;;;;;;;;;;;;;;0.73;76.00;102183.91;5056742;28;1357;-90
2022/03/22 06:10:32;;;;;;;;;;;;;;;0.79;75.90;102193.97;5056785;28;1191;-90
2022/03/22 06:12:58;;;;;;;;;;;;;;;0.74;75.48;102197.19;5056758;28;1223;-89
2022/03/22 06:15:25;;;;;;;;;;;;;;;0.82;75.92;102192.78;5056801;28;1322;-91
2022/03/22 06:17:51;;;;;;;;;;;;;;;0.88;75.89;102192.91;5056847;28;1898;-89
2022/03/22 06:20:18;;;;;;;;;;;;;;;0.93;76.06;102198.66;5056816;28;1391;-89
2022/03/22 06:22:45;;;;;;;;;;;;;;;1.00;75.91;102199.63;5056841;28;1176;-89
2022/03/22 06:25:11;;;;;;;;;;;;;;;1.01;75.90;102201.31;5056922;28;1212;-89
2022/03/22 06:27:36;;;;;;;;;;;;;;;1.06;76.25;102195.38;5056564;28;1369;-90
2022/03/22 06:30:05;;;;;;;;;;;;;;;1.04;76.54;102197.38;5074318;28;1066;-91
2022/03/22 06:32:30;;;;;;;;;;;;;;;1.06;76.44;102196.22;5036482;28;1330;-90
2022/03/22 06:34:55;;;;;;;;;;;;;;;1.17;76.15;102204.91;5053130;28;1302;-89
2022/03/22 06:37:21;;;;;;;;;;;;;;;1.23;75.89;102202.34;5052960;28;1902;-89
2022/03/22 06:39:46;;;;;;;;;;;;;;;1.34;76.25;102210.03;5053340;28;1235;-90
2022/03/22 06:42:12;;;;;;;;;;;;;;;1.39;76.66;102206.78;5052984;28;1147;-90
2022/03/22 06:44:39;;;;;;;;;;;;;;;1.34;77.20;102203.81;5053014;28;1221;-89
2022/03/22 06:47:04;;;;;;;;;;;;;;;1.46;77.52;102203.19;5052580;28;1244;-90
2022/03/22 06:49:29;;;;;;;;;;;;;;;1.49;77.28;102212.81;5052821;28;1262;-89
2022/03/22 06:51:54;;;;;;;;;;;;;;;1.62;77.60;102209.50;5052927;28;1220;-89
2022/03/22 06:54:21;;;;;;;;;;;;;;;1.61;77.44;102205.16;5053043;28;964;-89
2022/03/22 06:56:47;;;;;;;;;;;;;;;1.75;76.46;102207.06;5052917;28;1957;-89
2022/03/22 06:59:12;;;;;;;;;;;;;;;1.77;76.51;102205.03;5052821;28;1298;-89
2022/03/22 07:01:37;;;;;;;;;;;;;;;1.77;76.83;102207.72;5052809;28;1343;-89
2022/03/22 07:04:02;;;;;;;;;;;;;;;1.84;77.06;102206.81;5052681;28;912;-89
2022/03/22 07:06:27;;;;;;;;;;;;;;;2.05;77.11;102203.41;5053141;28;1331;-89
2022/03/22 07:08:54;;;;;;;;;;;;;;;2.16;76.94;102212.94;5035985;28;1256;-89
2022/03/22 07:14:03;;;;;;;;;;;;;;;2.53;75.22;102214.75;5058095;28;1250;-89
2022/03/22 07:16:28;;;;;;;;;;;;;;;2.70;75.02;102215.41;5056063;28;1961;-88
2022/03/22 07:18:53;;;;;;;;;;;;;;;2.85;74.41;102208.13;5056205;28;1324;-89
2022/03/22 07:21:19;;;;;;;;;;;;;;;2.96;74.06;102215.78;5073978;28;1042;-90
2022/03/22 07:23:44;;;;;;;;;;;;;;;3.07;72.27;102215.25;5055861;28;1259;-89
2022/03/22 07:26:09;;;;;;;;;;;;;;;3.17;72.03;102213.09;5073816;28;991;-89
2022/03/22 07:28:35;;;;;;;;;;;;;;;3.23;71.36;102219.66;5055671;28;1209;-89
2022/03/22 07:31:00;;;;;;;;;;;;;;;3.32;69.82;102219.31;5055897;28;1317;-89
2022/03/22 07:33:26;;;;;;;;;;;;;;;3.45;69.75;102220.50;5056113;28;1315;-89
2022/03/22 07:35:52;;;;;;;;;;;;;;;3.50;69.05;102218.88;5055813;28;1898;-89
2022/03/22 07:38:17;;;;;;;;;;;;;;;3.58;69.45;102223.34;5055843;28;1215;-90
2022/03/22 07:40:42;;;;;;;;;;;;;;;3.65;69.21;102227.81;5073698;28;1047;-88
2022/03/22 07:43:07;;;;;;;;;;;;;;;3.70;69.07;102222.66;5056071;28;1265;-89
2022/03/22 07:45:33;;;;;;;;;;;;;;;3.76;69.18;102227.28;5056030;28;873;-88
2022/03/22 07:47:58;;;;;;;;;;;;;;;3.83;68.78;102221.13;5055481;28;1366;-88
2022/03/22 07:53:08;;;;;;;;;;;;;;;3.94;68.83;102213.28;5073562;28;619;-89
2022/03/22 07:55:33;;;;;;;;;;;;;;;3.99;68.80;102215.44;5073860;28;786;-89
2022/03/22 07:57:58;;;;;;;;;;;;;;;4.03;69.12;102217.53;5055497;28;1901;-89
2022/03/22 08:00:24;;;;;;;;;;;;;;;4.10;68.75;102214.88;5058921;28;1278;-89
2022/03/22 08:02:57;;;;;;;;;;;;;;;4.15;68.69;102213.28;5059285;28;1419;-90
2022/03/22 08:05:22;;;;;;;;;;;;;;;4.21;68.80;102217.06;5059529;28;1221;-89
2022/03/22 08:07:48;;;;;;;;;;;;;;;4.25;68.54;102209.38;5059347;28;1277;-89
2022/03/22 08:10:13;;;;;;;;;;;;;;;4.28;68.65;102209.81;5059298;28;1367;-89
2022/03/22 08:12:39;;;;;;;;;;;;;;;4.32;68.70;102212.97;5059182;28;1004;-89
2022/03/22 08:15:04;;;;;;;;;;;;;;;4.38;68.54;102210.31;5059009;28;1335;-89
2022/03/22 08:17:30;;;;;;;;;;;;;;;4.45;68.16;102207.63;5059006;28;1894;-89
2022/03/22 08:19:55;;;;;;;;;;;;;;;4.49;67.84;102209.75;5058972;28;983;-89
2022/03/22 08:22:20;;;;;;;;;;;;;;;4.57;67.24;102203.34;5059124;28;1188;-89
2022/03/22 08:24:45;;;;;;;;;;;;;;;4.63;66.62;102196.28;5059004;28;1086;-89
2022/03/22 08:27:10;;;;;;;;;;;;;;;4.70;66.08;102199.84;5059149;28;1262;-90
2022/03/22 08:29:35;;;;;;;;;;;;;;;4.76;65.74;102196.38;5059078;28;1245;-89
2022/03/22 08:32:00;;;;;;;;;;;;;;;4.81;66.24;102194.72;5058731;28;833;-90
2022/03/22 08:34:26;;;;;;;;;;;;;;;4.92;65.98;102196.03;5059334;28;901;-89
2022/03/22 08:36:51;;;;;;;;;;;;;;;4.99;66.17;102194.16;5058944;28;1957;-89
2022/03/22 08:39:16;;;;;;;;;;;;;;;5.02;65.93;102190.22;5058998;28;1280;-88
2022/03/22 08:41:41;;;;;;;;;;;;;;;5.10;65.88;102193.59;5058995;28;1227;-89
2022/03/22 08:44:06;;;;;;;;;;;;;;;5.17;65.31;102183.59;5059047;28;1196;-89
2022/03/22 08:46:32;;;;;;;;;;;;;;;5.25;65.88;102185.28;5058542;28;1283;-89
2022/03/22 08:48:57;;;;;;;;;;;;;;;5.30;65.83;102178.19;5058290;28;1205;-89
2022/03/22 08:51:24;;;;;;;;;;;;;;;5.39;65.46;102180.72;5058881;28;1102;-89
2022/03/22 08:53:49;;;;;;;;;;;;;;;5.44;65.05;102173.66;5058413;28;1216;-89
2022/03/22 08:56:14;;;;;;;;;;;;;;;5.49;65.29;102173.88;5058273;28;1898;-89
2022/03/22 08:58:41;;;;;;;;;;;;;;;5.58;64.79;102171.78;5058582;28;1391;-89
2022/03/22 09:01:07;;;;;;;;;;;;;;;5.65;64.98;102169.91;5058391;28;1387;-89
2022/03/22 09:03:32;;;;;;;;;;;;;;;5.72;64.50;102168.88;5058152;28;1121;-90
2022/03/22 09:06:11;;;;;;;;;;;;;;;5.79;63.88;102168.03;5058597;28;1320;-89
2022/03/22 09:08:37;;;;;;;;;;;;;;;5.89;64.22;102166.59;5058162;28;1249;-88
2022/03/22 09:11:03;;;;;;;;;;;;;;;5.94;63.45;102157.84;5057422;28;1183;-89
2022/03/22 09:13:31;;;;;;;;;;;;;;;6.02;62.75;102157.63;5076049;28;1003;-89
2022/03/22 09:15:56;;;;;;;;;;;;;;;6.10;62.24;102157.41;5058452;28;1890;-89
2022/03/22 09:18:21;;;;;;;;;;;;;;;6.16;62.68;102161.16;5057795;28;1263;-88
2022/03/22 09:20:47;;;;;;;;;;;;;;;6.31;61.83;102157.16;5057924;28;1328;-88
2022/03/22 09:23:14;;;;;;;;;;;;;;;6.32;61.55;102164.28;5057948;28;1279;-89
2022/03/22 09:25:43;;;;;;;;;;;;;;;6.41;61.65;102165.72;5057886;28;1192;-89
2022/03/22 09:28:10;;;;;;;;;;;;;;;6.52;60.91;102158.81;5057790;28;1267;-89
2022/03/22 09:30:36;;;;;;;;;;;;;;;6.64;60.72;102157.09;5057739;28;1471;-89
2022/03/22 09:33:02;;;;;;;;;;;;;;;6.67;61.26;102153.94;5058132;28;1453;-89
2022/03/22 09:35:30;;;;;;;;;;;;;;;6.74;60.95;102154.75;5057567;28;1180;-89
2022/03/22 09:37:55;;;;;;;;;;;;;;;6.76;60.69;102152.66;5057555;28;1947;-88
2022/03/22 09:40:22;;;;;;;;;;;;;;;6.84;59.96;102144.25;5057544;28;1228;-89
2022/03/22 09:42:47;;;;;;;;;;;;;;;6.92;59.58;102143.16;5057446;28;1283;-89
2022/03/22 09:45:17;;;;;;;;;;;;;;;6.96;59.70;102144.44;5057573;28;1212;-88
2022/03/22 09:47:44;;;;;;;;;;;;;;;7.03;59.42;102141.66;5057346;28;1449;-89
2022/03/22 09:50:10;;;;;;;;;;;;;;;7.17;59.12;102143.25;5075740;28;774;-88
2022/03/22 09:52:35;;;;;;;;;;;;;;;7.26;58.71;102143.84;5057310;28;1310;-89
2022/03/22 09:55:01;;;;;;;;;;;;;;;7.31;58.09;102139.41;5074954;28;917;-88
2022/03/22 09:57:26;;;;;;;;;;;;;;;7.44;57.63;102141.22;5056974;28;1914;-88
2022/03/22 09:59:51;;;;;;;;;;;;;;;7.52;57.26;102147.22;5057008;28;1362;-89
2022/03/22 10:02:25;;;;;;;;;;;;;;;7.58;56.83;102140.91;5057367;28;1173;-88
2022/03/22 10:04:51;;;;;;;;;;;;;;;7.62;56.69;102138.56;5056978;28;1141;-88
2022/03/22 10:07:17;;;;;;;;;;;;;;;7.72;55.76;102138.09;5056903;28;1216;-89
2022/03/22 10:09:50;;;;;;;;;;;;;;;7.81;55.37;102132.13;5074764;28;836;-89
2022/03/22 10:12:24;;;;;;;;;;;;;;;7.93;55.03;102130.34;5056878;28;1393;-88
2022/03/22 10:14:49;;;;;;;;;;;;;;;7.99;54.36;102126.72;5057154;28;1370;-88
2022/03/22 10:17:17;;;;;;;;;;;;;;;7.97;54.26;102128.84;5057033;28;1898;-88
2022/03/22 10:19:44;;;;;;;;;;;;;;;8.06;53.19;102125.84;5056796;28;1242;-89
2022/03/22 10:22:10;;;;;;;;;;;;;;;8.14;54.17;102125.56;5055959;28;1365;-89
2022/03/22 10:24:45;;;;;;;;;;;;;;;8.15;53.15;102119.03;5056520;28;1488;-88
2022/03/22 10:27:21;;;;;;;;;;;;;;;8.24;53.12;102107.63;5056686;28;1338;-88
2022/03/22 10:29:46;;;;;;;;;;;;;;;8.30;52.60;102106.69;5074509;28;856;-89
2022/03/22 10:32:11;;;;;;;;;;;;;;;8.37;52.87;102109.38;5057129;28;1289;-89
2022/03/22 10:34:36;;;;;;;;;;;;;;;8.51;51.90;102101.88;5074381;28;1055;-89
2022/03/22 10:37:02;;;;;;;;;;;;;;;8.60;52.52;102095.88;5074278;28;1894;-89
2022/03/22 10:39:27;;;;;;;;;;;;;;;8.62;52.60;102099.22;5056567;28;1125;-88
2022/03/22 10:42:02;;;;;;;;;;;;;;;8.67;51.34;102096.66;5056826;28;963;-89
2022/03/22 10:44:28;;;;;;;;;;;;;;;8.78;51.49;102100.50;5043481;28;1684;-89
2022/03/22 10:46:54;;;;;;;;;;;;;;;8.84;51.15;102096.88;5036432;28;1385;-89
2022/03/22 10:49:19;;;;;;;;;;;;;;;8.87;49.89;102101.84;5036778;28;1297;-89
2022/03/22 10:51:48;;;;;;;;;;;;;;;9.03;49.11;102093.00;5036214;28;1436;-89
2022/03/22 10:54:15;;;;;;;;;;;;;;;9.10;48.77;102090.22;5036345;28;1380;-88
2022/03/22 10:56:45;;;;;;;;;;;;;;;9.14;48.80;102090.56;5036271;28;1950;-88
2022/03/22 10:59:11;;;;;;;;;;;;;;;9.35;47.88;102092.78;5036485;28;1228;-89
2022/03/22 11:01:39;;;;;;;;;;;;;;;9.38;47.24;102086.84;5036307;28;1343;-89
2022/03/22 11:04:04;;;;;;;;;;;;;;;9.39;45.65;102083.03;5036563;28;1324;-88
2022/03/22 11:06:31;;;;;;;;;;;;;;;9.52;45.00;102082.00;5054171;28;1050;-88
2022/03/22 11:08:56;;;;;;;;;;;;;;;9.56;44.28;102089.50;5036518;28;1331;-89
2022/03/22 11:11:22;;;;;;;;;;;;;;;9.76;43.41;102079.06;5036160;28;1253;-88
2022/03/22 11:13:47;;;;;;;;;;;;;;;9.91;45.40;102077.75;5036131;28;1195;-88
2022/03/22 11:16:13;;;;;;;;;;;;;;;10.06;45.55;102075.38;5036148;28;1897;-88
2022/03/22 11:18:39;;;;;;;;;;;;;;;10.00;45.28;102079.91;5036203;28;1311;-89
2022/03/22 11:21:05;;;;;;;;;;;;;;;9.85;44.01;102074.06;5036255;28;1231;-88
2022/03/22 11:23:31;;;;;;;;;;;;;;;9.77;42.91;102069.78;5036126;28;1239;-89
2022/03/22 11:26:10;;;;;;;;;;;;;;;9.97;43.22;102058.47;5036090;28;1199;-89
2022/03/22 11:28:35;;;;;;;;;;;;;;;10.05;41.88;102057.28;5036378;28;1356;-88
2022/03/22 11:31:01;;;;;;;;;;;;;;;10.31;41.58;102059.56;5036021;28;1283;-89
2022/03/22 11:36:18;;;;;;;;;;;;;;;10.43;43.02;102045.84;5058219;28;1902;-89
2022/03/22 11:38:44;;;;;;;;;;;;;;;10.43;43.12;102043.94;5040083;28;1266;-89
2022/03/22 11:44:10;;;;;;;;;;;;;;;10.48;43.90;102037.72;5058192;28;624;-89
2022/03/22 11:46:35;;;;;;;;;;;;;;;10.50;43.15;102041.06;5039951;28;1273;-89
2022/03/22 11:49:13;;;;;;;;;;;;;;;10.56;42.52;102035.44;5039746;28;1276;-89
2022/03/22 11:51:49;;;;;;;;;;;;;;;10.73;42.40;102030.03;5039896;28;1285;-88
2022/03/22 11:54:14;;;;;;;;;;;;;;;10.73;44.49;102023.72;5039630;28;1239;-89
2022/03/22 11:56:49;;;;;;;;;;;;;;;10.83;43.46;102022.00;5057532;28;1871;-88
2022/03/22 11:59:16;;;;;;;;;;;;;;;10.92;43.45;102019.72;5039687;28;1336;-88
2022/03/22 12:01:41;;;;;;;;;;;;;;;11.08;42.90;102018.91;5039607;28;1217;-89
2022/03/22 12:04:14;;;;;;;;;;;;;;;11.14;42.54;102022.59;5057584;28;845;-89
2022/03/22 12:06:39;;;;;;;;;;;;;;;11.22;42.49;102024.91;5039600;28;1211;-88
2022/03/22 12:09:06;;;;;;;;;;;;;;;11.26;42.05;102023.34;5039432;28;1248;-88
2022/03/22 12:11:31;;;;;;;;;;;;;;;11.28;41.50;102022.00;5057199;28;1023;-89
2022/03/22 12:13:56;;;;;;;;;;;;;;;11.27;41.35;102014.03;5044064;28;1250;-89
2022/03/22 12:16:25;;;;;;;;;;;;;;;11.35;40.79;102006.22;5059494;28;1957;-88
2022/03/22 12:18:51;;;;;;;;;;;;;;;11.49;40.94;102012.19;5059585;28;1303;-89
2022/03/22 12:21:19;;;;;;;;;;;;;;;11.59;41.38;102003.31;5059401;28;1188;-88
2022/03/22 12:23:46;;;;;;;;;;;;;;;11.67;40.53;102000.13;5058862;28;1308;-89
2022/03/22 12:26:11;;;;;;;;;;;;;;;11.82;38.03;101999.59;5059234;28;1291;-89
2022/03/22 12:28:45;;;;;;;;;;;;;;;11.87;39.12;101992.25;5058960;28;1208;-88
2022/03/22 12:31:11;;;;;;;;;;;;;;;11.86;37.66;101995.25;5059193;28;1200;-88
2022/03/22 12:33:37;;;;;;;;;;;;;;;11.95;37.93;101991.81;5058864;28;1252;-89
2022/03/22 12:36:02;;;;;;;;;;;;;;;12.05;37.30;101986.47;5058807;28;1949;-89
2022/03/22 12:38:28;;;;;;;;;;;;;;;12.26;35.84;101982.06;5058917;28;1260;-89
2022/03/22 12:40:53;;;;;;;;;;;;;;;12.54;35.37;101970.03;5075565;28;1322;-88
2022/03/22 12:43:19;;;;;;;;;;;;;;;12.47;35.20;101974.91;5076566;28;1019;-90
2022/03/22 12:45:46;;;;;;;;;;;;;;;12.47;35.67;101974.91;5058088;28;1311;-88
2022/03/22 12:48:14;;;;;;;;;;;;;;;12.44;36.19;101965.25;5058549;28;1202;-89
2022/03/22 12:50:39;;;;;;;;;;;;;;;12.52;36.31;101967.53;5075524;28;1179;-89
2022/03/22 12:53:04;;;;;;;;;;;;;;;12.57;34.23;101958.56;5057709;28;1249;-88
2022/03/22 12:55:42;;;;;;;;;;;;;;;12.70;34.19;101958.13;5038866;28;992;-89
2022/03/22 12:58:07;;;;;;;;;;;;;;;12.82;34.18;101957.97;5038788;28;1894;-89
2022/03/22 13:00:34;;;;;;;;;;;;;;;12.96;33.51;101959.19;5038552;28;976;-89
2022/03/22 13:03:09;;;;;;;;;;;;;;;13.24;34.52;101952.59;5038282;28;1215;-88
2022/03/22 13:05:42;;;;;;;;;;;;;;;13.41;34.50;101950.53;5038482;28;1291;-88
2022/03/22 13:08:20;;;;;;;;;;;;;;;13.38;34.35;101955.72;5038667;28;1209;-88
2022/03/22 13:15:01;;;;;;;;;;;;;;;13.81;31.90;101949.13;5056380;28;631;-88
2022/03/22 13:16:25;;;;;;;;;;;;;;;14.62;32.05;101944.81;5055967;28;1890;-89
2022/03/22 13:18:52;;;;;;;;;;;;;;;14.75;31.21;101937.94;5038633;28;1257;-89
2022/03/22 13:21:21;;;;;;;;;;;;;;;17.82;28.71;101930.44;5038384;28;1253;-89
2022/03/22 13:23:47;;;;;;;;;;;;;;;24.16;20.75;101914.94;5038567;28;1455;-89
2022/03/22 13:26:15;;;;;;;;;;;;;;;26.55;17.89;101915.53;5055892;28;988;-88
2022/03/22 13:28:40;;;;;;;;;;;;;;;25.36;18.12;101913.97;5039175;28;1342;-88
2022/03/22 13:31:06;;;;;;;;;;;;;;;22.48;21.39;101917.06;5041367;28;1153;-88
2022/03/22 13:33:33;;;;;;;;;;;;;;;22.33;21.25;101917.53;5041635;28;1311;-87